Time;durP1;ratioP1;P1;durP2;ratioP2;P2;SDS_P1;SDS_P2;PMS_P1;PMS_P2;Temp;Humidity;BMP_temperature;BMP_pressure;BME280_temperature;BME280_humidity;BME280_pressure;Samples;Min_cycle;Max_cycle;Signal;HPM_P1;HPM_P2
2023/01/10 00:00:24;;;;;;;34.88;5.78;;;11.40;99.90;;;;;;4995025;28;20422;-69
2023/01/10 00:02:51;;;;;;;29.80;4.90;;;11.50;99.90;;;;;;4995123;28;20035;-69
2023/01/10 00:05:17;;;;;;;30.65;4.80;;;11.50;99.90;;;;;;4990656;28;20085;-69
2023/01/10 00:07:43;;;;;;;31.30;5.57;;;11.40;99.90;;;;;;4994969;28;20419;-68
2023/01/10 00:10:09;;;;;;;29.58;5.82;;;11.50;99.90;;;;;;4994302;28;20035;-69
2023/01/10 00:15:19;;;;;;;29.05;4.78;;;11.40;99.90;;;;;;4991312;28;21583;-69
2023/01/10 00:17:44;;;;;;;25.17;5.00;;;11.40;99.90;;;;;;4995161;28;20039;-69
2023/01/10 00:20:10;;;;;;;31.50;5.30;;;11.50;99.90;;;;;;4994664;28;20093;-69
2023/01/10 00:22:36;;;;;;;28.98;4.80;;;11.50;99.90;;;;;;4993857;28;20042;-69
2023/01/10 00:25:01;;;;;;;26.95;5.22;;;11.50;99.90;;;;;;4992898;28;20455;-69
2023/01/10 00:27:27;;;;;;;21.50;4.70;;;11.50;99.90;;;;;;4983127;28;20057;-69
2023/01/10 00:29:53;;;;;;;30.48;5.30;;;11.50;99.90;;;;;;4993945;28;20121;-68
2023/01/10 00:32:19;;;;;;;27.45;5.00;;;11.50;99.90;;;;;;4992229;28;20046;-69
2023/01/10 00:34:45;;;;;;;26.13;5.13;;;11.50;99.90;;;;;;4994555;28;20049;-68
2023/01/10 00:37:11;;;;;;;25.40;4.93;;;11.40;99.90;;;;;;4992658;28;20034;-69
2023/01/10 00:39:36;;;;;;;34.28;5.25;;;11.60;99.90;;;;;;4993535;28;20270;-69
2023/01/10 00:44:46;;;;;;;11.15;2.97;;;11.50;99.90;;;;;;4993582;28;20526;-69
2023/01/10 00:47:15;;;;;;;10.98;2.30;;;11.20;99.90;;;;;;4994308;28;20070;-69
2023/01/10 00:49:40;;;;;;;19.33;3.97;;;10.80;99.90;;;;;;4994355;28;20043;-69
2023/01/10 00:52:06;;;;;;;19.73;3.10;;;10.50;99.90;;;;;;4994393;28;20038;-69
2023/01/10 00:54:32;;;;;;;15.90;3.65;;;10.40;99.90;;;;;;4994384;28;20049;-68
2023/01/10 00:56:57;;;;;;;25.90;4.00;;;10.60;99.90;;;;;;4992764;28;20491;-69
2023/01/10 00:59:23;;;;;;;20.17;3.67;;;10.70;99.90;;;;;;4977596;28;20483;-69
2023/01/10 01:01:49;;;;;;;23.63;4.88;;;10.80;99.90;;;;;;4992314;28;20042;-69
2023/01/10 01:04:15;;;;;;;24.90;4.57;;;10.90;99.90;;;;;;4993662;28;20137;-69
2023/01/10 01:06:46;;;;;;;26.83;4.90;;;10.90;99.90;;;;;;4994386;28;20133;-69
2023/01/10 01:09:12;;;;;;;32.45;5.60;;;11.10;99.90;;;;;;4992528;28;20054;-69
2023/01/10 01:11:39;;;;;;;29.73;5.53;;;11.20;99.90;;;;;;4993210;28;20412;-69
2023/01/10 01:14:05;;;;;;;29.17;5.35;;;11.20;99.90;;;;;;4993181;28;20046;-68
2023/01/10 01:16:31;;;;;;;25.48;4.47;;;11.30;99.90;;;;;;5003942;28;20096;-69
2023/01/10 01:18:56;;;;;;;28.38;5.20;;;11.30;99.90;;;;;;4993762;28;20046;-70
2023/01/10 01:21:26;;;;;;;28.08;5.38;;;11.40;99.90;;;;;;4976151;28;20059;-69
2023/01/10 01:23:55;;;;;;;33.38;6.20;;;11.30;99.90;;;;;;5010132;28;20034;-69
2023/01/10 01:26:22;;;;;;;34.63;5.78;;;11.30;99.90;;;;;;4993225;28;20109;-69
2023/01/10 01:28:48;;;;;;;33.47;5.55;;;11.30;99.90;;;;;;4994514;28;20460;-69
2023/01/10 01:31:13;;;;;;;26.08;6.03;;;11.30;99.90;;;;;;4991768;28;20073;-69
2023/01/10 01:33:39;;;;;;;39.58;6.68;;;11.40;99.90;;;;;;4993689;28;20041;-69
2023/01/10 01:36:09;;;;;;;21.92;4.63;;;11.40;99.90;;;;;;4993527;28;20049;-68
2023/01/10 01:38:36;;;;;;;19.48;3.92;;;11.40;99.90;;;;;;4991595;28;20069;-69
2023/01/10 01:41:01;;;;;;;18.88;3.50;;;11.30;99.90;;;;;;4974976;28;20385;-69
2023/01/10 01:43:30;;;;;;;22.80;4.85;;;11.10;99.90;;;;;;4993664;28;20520;-69
2023/01/10 01:46:01;;;;;;;23.40;4.72;;;11.00;99.90;;;;;;4991430;28;20050;-69
2023/01/10 01:48:33;;;;;;;31.35;5.20;;;10.90;1.00;;;;;;4977123;28;20403;-69
2023/01/10 01:51:04;;;;;;;34.22;5.40;;;10.90;1.00;;;;;;4992995;28;20092;-69
2023/01/10 01:53:49;;;;;;;35.92;5.28;;;11.00;1.00;;;;;;4993166;28;20104;-69
2023/01/10 01:56:28;;;;;;;31.38;5.32;;;10.80;1.00;;;;;;4988318;28;20046;-69
2023/01/10 01:59:08;;;;;;;30.45;4.50;;;11.00;1.00;;;;;;4962953;28;20034;-69
2023/01/10 02:01:36;;;;;;;26.50;4.60;;;10.80;6.70;;;;;;4992672;28;20488;-69
2023/01/10 02:04:36;;;;;;;26.67;4.32;;;11.00;1.00;;;;;;4994073;28;20078;-69
2023/01/10 02:07:02;;;;;;;27.10;5.05;;;11.50;8.40;;;;;;4988734;28;20035;-68
2023/01/10 02:09:47;;;;;;;32.67;5.95;;;11.00;1.00;;;;;;4992147;28;20053;-68
2023/01/10 02:12:14;;;;;;;29.60;4.88;;;11.00;1.00;;;;;;4991500;28;20054;-68
2023/01/10 02:14:42;;;;;;;32.88;5.72;;;11.00;1.00;;;;;;4993771;28;20117;-68
2023/01/10 02:17:10;;;;;;;32.38;5.28;;;11.10;1.00;;;;;;4990925;28;20074;-68
2023/01/10 02:19:50;;;;;;;32.50;5.05;;;11.00;1.00;;;;;;4991540;28;20121;-68
2023/01/10 02:22:49;;;;;;;32.35;5.60;;;11.10;1.00;;;;;;4991307;28;20042;-68
2023/01/10 02:25:32;;;;;;;43.45;7.25;;;11.20;10.50;;;;;;4991196;28;20050;-68
2023/01/10 02:28:13;;;;;;;38.63;6.72;;;11.10;37.30;;;;;;4993324;28;20113;-68
2023/01/10 02:31:09;;;;;;;38.83;7.28;;;11.10;52.30;;;;;;4993211;28;20045;-69
2023/01/10 02:33:43;;;;;;;38.77;6.13;;;11.30;46.40;;;;;;4991975;28;20045;-68
2023/01/10 02:36:27;;;;;;;39.53;6.13;;;11.20;41.90;;;;;;4992603;28;20078;-68
2023/01/10 02:38:57;;;;;;;37.28;6.50;;;11.30;48.00;;;;;;4979896;28;20431;-68
2023/01/10 02:41:37;;;;;;;35.38;6.60;;;11.20;25.60;;;;;;4991430;28;20061;-68
2023/01/10 02:44:09;;;;;;;35.45;6.20;;;11.20;62.60;;;;;;4991251;28;20042;-68
2023/01/10 02:46:37;;;;;;;38.20;6.47;;;11.20;39.50;;;;;;4992303;28;20050;-68
2023/01/10 02:49:03;;;;;;;39.30;6.80;;;11.30;25.90;;;;;;5005789;28;20073;-68
2023/01/10 02:51:32;;;;;;;37.42;6.75;;;11.70;2.60;;;;;;4992093;28;20121;-68
2023/01/10 02:54:08;;;;;;;38.70;6.88;;;11.30;1.00;;;;;;4989613;28;20491;-68
2023/01/10 02:56:59;;;;;;;35.33;6.25;;;11.30;1.00;;;;;;4976175;28;20042;-68
2023/01/10 02:59:40;;;;;;;41.30;7.22;;;11.30;1.00;;;;;;5008365;28;20038;-68
2023/01/10 03:02:16;;;;;;;37.05;7.07;;;11.30;1.00;;;;;;4989880;28;20052;-68
2023/01/10 03:05:09;;;;;;;35.05;6.20;;;11.30;1.00;;;;;;4991857;28;20496;-68
2023/01/10 03:07:45;;;;;;;36.78;5.70;;;11.40;1.00;;;;;;4991628;28;20472;-68
2023/01/10 03:10:24;;;;;;;33.15;6.28;;;11.30;1.00;;;;;;4991639;28;20536;-68
2023/01/10 03:13:00;;;;;;;36.35;7.15;;;11.50;1.00;;;;;;4990775;28;20522;-68
2023/01/10 03:15:31;;;;;;;41.47;6.82;;;11.50;1.00;;;;;;4991719;28;20042;-68
2023/01/10 03:18:00;;;;;;;44.08;6.85;;;11.60;1.00;;;;;;4991485;28;20403;-69
2023/01/10 03:20:30;;;;;;;36.38;6.57;;;11.60;1.00;;;;;;4991920;28;20046;-68
2023/01/10 03:22:55;;;;;;;37.00;6.55;;;11.60;1.00;;;;;;4991578;28;20042;-68
2023/01/10 03:25:27;;;;;;;37.85;6.72;;;11.50;1.00;;;;;;4990845;28;20121;-69
2023/01/10 03:28:25;;;;;;;48.95;7.57;;;11.50;1.00;;;;;;4991509;28;20076;-68
2023/01/10 03:31:09;;;;;;;40.97;7.10;;;11.70;1.00;;;;;;4990748;28;20050;-69
2023/01/10 03:33:35;;;;;;;37.17;7.00;;;11.50;1.00;;;;;;4987830;28;20042;-68
2023/01/10 03:36:25;;;;;;;40.00;6.85;;;11.70;1.00;;;;;;4991425;28;20500;-68
2023/01/10 03:38:58;;;;;;;41.72;6.90;;;11.50;1.00;;;;;;4991275;28;20046;-68
2023/01/10 03:41:28;;;;;;;37.13;7.50;;;11.60;1.00;;;;;;4991110;28;20500;-69
2023/01/10 03:47:23;;;;;;;38.75;6.68;;;11.50;2.90;;;;;;4991912;28;20074;-68
2023/01/10 03:50:24;;;;;;;37.72;5.75;;;11.40;24.30;;;;;;4988398;28;20039;-68
2023/01/10 03:52:50;;;;;;;38.10;6.35;;;11.60;26.00;;;;;;4977480;28;20499;-68
2023/01/10 03:55:23;;;;;;;25.52;5.45;;;11.50;52.90;;;;;;4991304;28;20125;-69
2023/01/10 03:57:48;;;;;;;37.38;6.18;;;11.60;69.00;;;;;;4992464;28;20050;-68
2023/01/10 04:00:15;;;;;;;36.35;6.00;;;11.50;42.80;;;;;;4991585;28;20034;-68
2023/01/10 04:02:41;;;;;;;35.33;6.20;;;11.40;48.00;;;;;;4990923;28;20035;-69
2023/01/10 04:05:07;;;;;;;41.08;5.97;;;11.20;13.70;;;;;;4991198;28;20042;-68
2023/01/10 04:07:33;;;;;;;28.23;6.05;;;11.10;1.00;;;;;;4991217;28;20124;-68
2023/01/10 04:09:58;;;;;;;34.05;6.45;;;11.10;7.50;;;;;;4973314;28;20470;-69
2023/01/10 04:12:24;;;;;;;37.92;6.95;;;11.20;64.30;;;;;;4991282;28;20046;-68
2023/01/10 04:14:50;;;;;;;31.95;5.97;;;11.40;86.30;;;;;;4991540;28;20042;-69
2023/01/10 04:17:16;;;;;;;39.08;5.72;;;11.40;99.90;;;;;;4991399;28;20042;-69
2023/01/10 04:19:43;;;;;;;37.55;7.00;;;11.50;99.90;;;;;;4991243;28;20046;-68
2023/01/10 04:22:09;;;;;;;40.78;6.43;;;11.40;99.90;;;;;;4990464;28;20038;-69
2023/01/10 04:24:35;;;;;;;31.73;7.38;;;11.40;99.90;;;;;;4991990;28;20539;-68
2023/01/10 04:27:00;;;;;;;38.13;6.40;;;11.40;99.90;;;;;;4992394;28;20065;-69
2023/01/10 04:29:26;;;;;;;35.05;6.32;;;11.50;99.90;;;;;;4990373;28;20045;-69
2023/01/10 04:31:52;;;;;;;36.35;5.82;;;11.60;99.90;;;;;;4991346;28;20050;-68
2023/01/10 04:34:21;;;;;;;38.78;7.07;;;11.50;99.90;;;;;;4991448;28;20074;-68
2023/01/10 04:36:48;;;;;;;34.78;5.53;;;11.40;99.90;;;;;;4994554;28;20550;-68
2023/01/10 04:39:13;;;;;;;22.35;3.95;;;11.60;99.90;;;;;;4994089;28;20113;-69
2023/01/10 04:41:39;;;;;;;20.17;3.20;;;11.40;99.90;;;;;;4992735;28;20153;-68
2023/01/10 04:44:05;;;;;;;20.27;3.53;;;11.40;99.90;;;;;;5009861;28;20041;-68
2023/01/10 04:46:31;;;;;;;24.08;3.63;;;11.20;22.60;;;;;;4994459;28;20042;-68
2023/01/10 04:48:57;;;;;;;32.40;5.05;;;11.30;28.50;;;;;;4994734;28;20121;-67
2023/01/10 04:51:26;;;;;;;30.00;4.90;;;11.20;99.90;;;;;;4991506;28;20137;-68
2023/01/10 04:53:53;;;;;;;26.20;5.03;;;11.40;99.90;;;;;;4995101;28;20081;-68
2023/01/10 04:56:20;;;;;;;28.15;5.13;;;11.30;99.90;;;;;;4994113;28;20042;-68
2023/01/10 04:58:47;;;;;;;30.55;4.53;;;11.50;99.90;;;;;;4994141;28;20046;-68
2023/01/10 05:01:21;;;;;;;30.10;5.30;;;11.50;99.90;;;;;;4993735;28;20069;-68
2023/01/10 05:03:51;;;;;;;34.03;5.60;;;11.50;99.90;;;;;;4994468;28;20074;-68
2023/01/10 05:06:18;;;;;;;41.72;6.57;;;11.60;99.90;;;;;;4978016;28;20145;-68
2023/01/10 05:08:44;;;;;;;35.85;6.10;;;11.60;99.90;;;;;;4992176;28;20105;-68
2023/01/10 05:11:10;;;;;;;31.95;6.50;;;11.60;99.90;;;;;;4985947;28;20046;-68
2023/01/10 05:13:36;;;;;;;36.80;6.05;;;11.60;99.90;;;;;;4993497;28;20038;-68
2023/01/10 05:16:01;;;;;;;42.70;6.43;;;11.70;99.90;;;;;;4993120;28;20068;-68
2023/01/10 05:18:28;;;;;;;36.47;5.97;;;11.80;99.90;;;;;;4995238;28;20046;-69
2023/01/10 05:21:09;;;;;;;28.83;5.82;;;11.90;96.90;;;;;;4995159;28;20038;-68
2023/01/10 05:23:35;;;;;;;35.63;5.82;;;11.90;27.20;;;;;;4993329;28;20480;-68
2023/01/10 05:26:10;;;;;;;34.72;5.53;;;11.80;1.00;;;;;;4992921;28;20034;-68
2023/01/10 05:28:36;;;;;;;29.38;5.38;;;11.80;1.00;;;;;;4993554;28;20435;-68
2023/01/10 05:31:04;;;;;;;27.77;5.40;;;11.70;1.00;;;;;;4992830;28;20081;-68
2023/01/10 05:33:29;;;;;;;37.22;5.63;;;11.80;1.00;;;;;;4993502;28;20484;-68
2023/01/10 05:35:55;;;;;;;39.60;5.90;;;12.20;1.00;;;;;;4993944;28;20177;-68
2023/01/10 05:38:20;;;;;;;29.98;5.35;;;11.50;1.00;;;;;;4993470;28;20046;-68
2023/01/10 05:40:46;;;;;;;31.80;6.18;;;11.50;1.00;;;;;;4992513;28;20053;-68
2023/01/10 05:43:11;;;;;;;27.15;5.30;;;11.40;1.00;;;;;;4991497;28;20038;-68
2023/01/10 05:45:37;;;;;;;31.77;5.88;;;11.40;1.00;;;;;;4993432;28;20044;-68
2023/01/10 05:48:03;;;;;;;36.53;6.55;;;11.50;1.00;;;;;;4992356;28;20045;-68
2023/01/10 05:50:28;;;;;;;40.45;6.07;;;11.60;1.00;;;;;;4994766;28;20437;-68
2023/01/10 05:52:54;;;;;;;41.88;6.20;;;11.50;1.00;;;;;;4989394;28;20082;-68
2023/01/10 05:55:19;;;;;;;35.50;5.88;;;11.30;1.00;;;;;;4993833;28;20396;-68
2023/01/10 05:57:45;;;;;;;41.10;6.18;;;11.30;1.00;;;;;;4977067;28;20058;-67
2023/01/10 06:00:11;;;;;;;32.35;6.10;;;11.40;1.00;;;;;;4993240;28;20044;-68
2023/01/10 06:02:37;;;;;;;52.78;7.05;;;11.40;1.00;;;;;;4991218;28;20049;-68
2023/01/10 06:05:02;;;;;;;30.20;6.53;;;11.30;1.00;;;;;;5005225;28;20536;-67
2023/01/10 06:07:28;;;;;;;37.05;6.63;;;11.20;1.00;;;;;;4983245;28;20038;-68
2023/01/10 06:09:53;;;;;;;41.42;6.90;;;11.30;1.00;;;;;;4993880;28;20373;-68
2023/01/10 06:12:19;;;;;;;38.80;6.10;;;11.20;1.00;;;;;;4992478;28;20046;-68
2023/01/10 06:14:45;;;;;;;39.45;6.75;;;11.20;1.00;;;;;;4992591;28;20400;-68
2023/01/10 06:17:10;;;;;;;36.10;7.13;;;11.20;16.40;;;;;;4992587;28;20034;-68
2023/01/10 06:19:36;;;;;;;34.70;7.30;;;11.40;22.70;;;;;;4993408;28;20034;-68
2023/01/10 06:22:02;;;;;;;43.65;7.15;;;11.40;25.30;;;;;;4991816;28;20069;-68
2023/01/10 06:24:28;;;;;;;36.42;6.43;;;11.20;3.50;;;;;;4992088;28;20178;-68
2023/01/10 06:26:53;;;;;;;47.78;7.75;;;11.30;1.00;;;;;;4988679;28;20081;-68
2023/01/10 06:29:19;;;;;;;42.95;7.13;;;11.00;1.00;;;;;;4993360;28;20033;-67
2023/01/10 06:31:44;;;;;;;49.38;6.60;;;10.80;1.00;;;;;;4993546;28;20057;-68
2023/01/10 06:34:10;;;;;;;38.75;7.05;;;10.80;1.00;;;;;;4992275;28;20046;-68
2023/01/10 06:36:36;;;;;;;34.65;6.22;;;11.00;10.90;;;;;;4992217;28;20048;-68
2023/01/10 06:39:02;;;;;;;49.63;7.80;;;10.90;99.90;;;;;;4988238;28;20050;-68
2023/01/10 06:41:27;;;;;;;44.50;8.10;;;11.00;99.90;;;;;;4991807;28;20038;-68
2023/01/10 06:43:53;;;;;;;52.65;7.18;;;11.40;99.90;;;;;;4993151;28;20038;-68
2023/01/10 06:46:19;;;;;;;37.65;7.60;;;11.20;99.90;;;;;;4992377;28;20093;-68
2023/01/10 06:48:45;;;;;;;37.63;6.50;;;11.50;99.90;;;;;;4989062;28;20038;-68
2023/01/10 06:51:15;;;;;;;38.95;8.20;;;11.40;99.90;;;;;;4983243;28;20342;-67
2023/01/10 06:53:41;;;;;;;40.22;6.80;;;11.70;99.90;;;;;;4989695;28;20508;-68
2023/01/10 06:56:08;;;;;;;42.60;7.57;;;11.40;99.90;;;;;;4987384;28;20047;-68
2023/01/10 06:58:37;;;;;;;37.83;7.40;;;11.60;99.90;;;;;;4991665;28;20050;-67
2023/01/10 07:01:12;;;;;;;40.90;6.28;;;11.50;99.90;;;;;;4990451;28;20050;-68
2023/01/10 07:03:39;;;;;;;40.40;6.82;;;11.60;99.90;;;;;;4992455;28;20054;-68
2023/01/10 07:06:09;;;;;;;38.95;5.95;;;11.50;99.90;;;;;;4990987;28;20034;-68
2023/01/10 07:08:39;;;;;;;42.05;7.18;;;11.60;99.90;;;;;;5007961;28;20049;-69
2023/01/10 07:11:05;;;;;;;38.72;7.05;;;11.80;99.90;;;;;;4986693;28;20058;-69
2023/01/10 07:13:30;;;;;;;37.28;6.32;;;11.70;99.90;;;;;;4982751;28;20145;-69
2023/01/10 07:16:11;;;;;;;33.72;6.72;;;11.80;99.90;;;;;;4993910;28;20508;-69
2023/01/10 07:18:38;;;;;;;37.75;6.95;;;11.70;99.90;;;;;;4984679;28;20121;-69
2023/01/10 07:21:04;;;;;;;36.72;6.28;;;11.60;19.20;;;;;;4979977;28;20078;-69
2023/01/10 07:23:30;;;;;;;31.83;5.70;;;11.40;1.00;;;;;;4985809;28;20128;-69
2023/01/10 07:25:57;;;;;;;30.33;5.18;;;11.40;1.00;;;;;;4983532;28;20035;-69
2023/01/10 07:28:22;;;;;;;31.75;6.07;;;11.40;1.00;;;;;;4981842;28;20110;-69
2023/01/10 07:30:48;;;;;;;42.22;6.85;;;11.00;1.00;;;;;;4968754;28;20164;-69
2023/01/10 07:33:14;;;;;;;27.65;5.70;;;11.00;1.00;;;;;;4987847;28;20030;-69
2023/01/10 07:35:39;;;;;;;42.17;6.38;;;10.80;1.00;;;;;;4986991;28;20132;-70
2023/01/10 07:38:05;;;;;;;37.00;6.32;;;10.80;1.00;;;;;;4987264;28;20044;-69
2023/01/10 07:40:30;;;;;;;33.63;6.38;;;11.10;99.90;;;;;;4985645;28;20034;-71
2023/01/10 07:42:57;;;;;;;34.22;6.07;;;11.00;99.90;;;;;;4986669;28;20138;-73
2023/01/10 07:45:23;;;;;;;22.63;4.65;;;11.10;99.90;;;;;;4982541;28;20557;-71
2023/01/10 07:47:49;;;;;;;29.08;5.50;;;11.10;1.00;;;;;;4978937;28;20042;-69
2023/01/10 07:50:15;;;;;;;29.83;6.00;;;11.30;1.00;;;;;;4981215;28;20049;-69
2023/01/10 07:52:40;;;;;;;30.65;5.85;;;11.30;1.00;;;;;;4981188;28;20049;-69
2023/01/10 07:55:06;;;;;;;33.17;5.63;;;11.10;1.00;;;;;;4966297;28;20046;-69
2023/01/10 07:57:32;;;;;;;28.98;5.03;;;10.90;1.00;;;;;;4982311;28;20092;-68
2023/01/10 07:59:57;;;;;;;27.02;5.80;;;10.70;1.00;;;;;;4981058;28;20050;-68
2023/01/10 08:02:23;;;;;;;26.27;4.88;;;10.60;1.00;;;;;;4982347;28;20035;-69
2023/01/10 08:04:48;;;;;;;26.30;4.57;;;10.40;1.00;;;;;;4985746;28;20057;-68
2023/01/10 08:07:14;;;;;;;17.33;3.83;;;10.50;1.00;;;;;;4984778;28;20042;-69
2023/01/10 08:09:39;;;;;;;20.10;4.43;;;10.40;99.90;;;;;;4985048;28;20034;-70
2023/01/10 08:12:05;;;;;;;20.23;4.47;;;10.50;99.90;;;;;;4991446;28;20038;-69
2023/01/10 08:14:30;;;;;;;17.13;4.10;;;10.70;99.90;;;;;;4982687;28;20042;-69
2023/01/10 08:16:56;;;;;;;27.77;3.90;;;10.70;99.90;;;;;;4982381;28;20042;-68
2023/01/10 08:19:22;;;;;;;33.55;5.47;;;10.60;1.00;;;;;;4984041;28;20038;-69
2023/01/10 08:21:47;;;;;;;21.15;4.43;;;10.50;1.00;;;;;;4991170;28;20137;-69
2023/01/10 08:24:13;;;;;;;24.65;4.68;;;10.60;1.00;;;;;;4985803;28;20121;-69
2023/01/10 08:26:38;;;;;;;27.75;5.07;;;10.60;1.00;;;;;;4987570;28;20062;-69
2023/01/10 08:29:04;;;;;;;27.30;4.78;;;10.90;12.10;;;;;;4990102;28;20097;-68
2023/01/10 08:31:29;;;;;;;26.70;5.05;;;10.70;1.00;;;;;;5003862;28;20046;-69
2023/01/10 08:33:55;;;;;;;24.67;5.13;;;11.10;88.50;;;;;;4991823;28;20399;-70
2023/01/10 08:36:21;;;;;;;23.48;5.18;;;11.20;99.90;;;;;;4991386;28;20484;-70
2023/01/10 08:38:47;;;;;;;23.65;4.93;;;11.60;99.90;;;;;;4985400;28;20043;-69
2023/01/10 08:41:12;;;;;;;23.42;4.32;;;11.50;99.90;;;;;;4990386;28;20471;-70
2023/01/10 08:43:39;;;;;;;23.52;5.25;;;11.50;48.70;;;;;;4985916;28;20129;-68
2023/01/10 08:46:05;;;;;;;22.75;5.13;;;11.60;37.50;;;;;;4981452;28;20495;-69
2023/01/10 08:48:31;;;;;;;32.38;5.75;;;11.40;1.00;;;;;;4987543;28;20042;-69
2023/01/10 08:50:57;;;;;;;31.08;5.20;;;11.40;1.00;;;;;;4976879;28;20029;-70
2023/01/10 08:53:22;;;;;;;25.98;4.95;;;11.20;1.00;;;;;;4993688;28;20085;-69
2023/01/10 08:55:48;;;;;;;20.77;4.25;;;11.30;1.00;;;;;;4990206;28;20102;-70
2023/01/10 08:58:14;;;;;;;23.73;5.10;;;11.40;1.00;;;;;;4990306;28;20084;-69
2023/01/10 09:00:40;;;;;;;29.90;5.88;;;11.30;1.00;;;;;;4992661;28;20045;-69
2023/01/10 09:03:06;;;;;;;25.38;5.10;;;11.90;1.00;;;;;;4991445;28;20080;-70
2023/01/10 09:05:32;;;;;;;26.73;4.88;;;11.30;1.00;;;;;;4987810;28;20480;-70
2023/01/10 09:07:59;;;;;;;22.38;4.82;;;11.20;1.00;;;;;;4990842;28;20061;-70
2023/01/10 09:10:25;;;;;;;23.48;4.00;;;11.30;1.00;;;;;;4990984;28;20068;-70
2023/01/10 09:12:53;;;;;;;27.88;5.28;;;11.30;1.00;;;;;;4974098;28;20069;-70
2023/01/10 09:15:20;;;;;;;25.08;4.72;;;11.40;1.00;;;;;;4990430;28;20096;-70
2023/01/10 09:17:46;;;;;;;24.20;4.35;;;11.50;1.00;;;;;;5006264;28;20523;-70
2023/01/10 09:20:12;;;;;;;22.15;4.55;;;11.50;1.00;;;;;;4990813;28;20043;-70
2023/01/10 09:22:38;;;;;;;23.58;5.63;;;11.50;1.00;;;;;;4975012;28;20061;-70
2023/01/10 09:25:04;;;;;;;24.38;5.47;;;11.50;1.00;;;;;;4991121;28;20416;-70
2023/01/10 09:27:30;;;;;;;30.90;5.38;;;11.50;1.00;;;;;;4989376;28;20042;-70
2023/01/10 09:29:55;;;;;;;30.95;5.30;;;11.50;1.00;;;;;;4990780;28;20026;-70
2023/01/10 09:32:21;;;;;;;23.27;4.85;;;11.70;1.00;;;;;;4988961;28;20070;-71
2023/01/10 09:34:46;;;;;;;30.27;5.43;;;11.50;1.00;;;;;;4990404;28;20030;-69
2023/01/10 09:37:12;;;;;;;31.35;6.22;;;11.50;1.00;;;;;;4984931;28;20484;-70
2023/01/10 09:39:37;;;;;;;31.35;5.32;;;11.60;1.00;;;;;;4992193;28;20069;-70
2023/01/10 09:42:21;;;;;;;26.05;4.93;;;11.70;1.00;;;;;;4989756;28;20046;-70
2023/01/10 09:45:17;;;;;;;31.10;5.80;;;11.70;1.00;;;;;;4989284;28;20493;-69
2023/01/10 09:48:03;;;;;;;26.20;5.65;;;11.60;1.00;;;;;;4987432;28;20109;-69
2023/01/10 09:50:56;;;;;;;28.48;4.97;;;11.70;1.00;;;;;;4988849;28;20038;-70
2023/01/10 09:53:23;;;;;;;23.13;4.60;;;11.50;1.00;;;;;;5006310;28;20404;-70
2023/01/10 09:55:56;;;;;;;26.25;5.25;;;11.50;1.00;;;;;;5005287;28;20540;-71
2023/01/10 09:58:26;;;;;;;35.72;5.72;;;11.60;1.00;;;;;;4988374;28;20034;-70
2023/01/10 10:01:14;;;;;;;30.60;5.63;;;11.70;1.00;;;;;;4985647;28;20038;-70
2023/01/10 10:03:51;;;;;;;26.60;5.65;;;11.70;10.80;;;;;;4987143;28;20062;-70
2023/01/10 10:06:17;;;;;;;24.85;5.28;;;11.70;16.50;;;;;;4990940;28;20053;-70
2023/01/10 10:08:45;;;;;;;32.25;5.38;;;11.70;33.40;;;;;;4991915;28;20042;-70
2023/01/10 10:11:25;;;;;;;19.00;4.90;;;12.60;13.30;;;;;;4989143;28;20038;-70
2023/01/10 10:14:17;;;;;;;25.70;5.30;;;11.80;65.30;;;;;;4967113;28;20050;-70
2023/01/10 10:17:10;;;;;;;24.27;4.22;;;11.90;77.90;;;;;;4985906;28;20500;-70
2023/01/10 10:19:50;;;;;;;26.92;5.25;;;11.90;71.40;;;;;;4985753;28;20100;-70
2023/01/10 10:23:06;;;;;;;30.00;5.68;;;11.90;68.30;;;;;;4991787;28;20069;-70
2023/01/10 10:26:11;;;;;;;42.63;6.40;;;11.70;50.50;;;;;;4971658;28;20121;-70
2023/01/10 10:28:51;;;;;;;22.65;5.28;;;11.80;33.00;;;;;;4974796;28;20065;-69
2023/01/10 10:31:47;;;;;;;29.10;5.40;;;11.70;39.80;;;;;;4998491;28;20443;-70
2023/01/10 10:34:35;;;;;;;29.70;5.70;;;11.70;1.00;;;;;;4987863;28;20113;-70
2023/01/10 10:37:04;;;;;;;28.50;5.30;;;11.80;1.00;;;;;;4990319;28;20042;-70
2023/01/10 10:39:50;;;;;;;30.05;5.53;;;11.50;1.00;;;;;;4987398;28;20041;-70
2023/01/10 10:42:18;;;;;;;26.60;5.80;;;11.60;3.50;;;;;;4985100;28;20397;-70
2023/01/10 10:45:03;;;;;;;33.55;6.40;;;11.70;1.00;;;;;;4986769;28;20492;-70
2023/01/10 10:47:34;;;;;;;22.52;4.60;;;11.70;19.10;;;;;;5004890;28;20026;-70
2023/01/10 10:50:14;;;;;;;37.17;6.78;;;11.70;13.50;;;;;;4986888;28;20042;-70
2023/01/10 10:52:42;;;;;;;37.80;6.47;;;11.70;47.30;;;;;;4999198;28;20495;-70
2023/01/10 10:55:17;;;;;;;34.60;5.55;;;11.60;27.60;;;;;;4986140;28;20049;-70
2023/01/10 10:57:45;;;;;;;27.33;5.78;;;11.60;36.60;;;;;;4987213;28;20053;-70
2023/01/10 11:00:18;;;;;;;30.20;5.95;;;11.60;12.30;;;;;;4987603;28;20042;-70
2023/01/10 11:03:11;;;;;;;30.67;5.68;;;11.70;3.00;;;;;;4981776;28;20045;-71
2023/01/10 11:05:43;;;;;;;30.52;5.57;;;11.80;87.50;;;;;;4986306;28;20082;-70
2023/01/10 11:08:12;;;;;;;32.85;6.07;;;11.70;99.90;;;;;;4991565;28;20581;-71
2023/01/10 11:10:40;;;;;;;21.25;5.47;;;11.50;99.90;;;;;;4973805;28;20125;-70
2023/01/10 11:13:28;;;;;;;39.33;5.72;;;11.40;99.90;;;;;;5004185;28;20053;-71
2023/01/10 11:15:53;;;;;;;29.75;5.65;;;11.40;99.90;;;;;;4991074;28;20132;-70
2023/01/10 11:18:22;;;;;;;25.13;5.82;;;11.30;99.90;;;;;;4992241;28;20089;-71
2023/01/10 11:21:01;;;;;;;31.20;6.45;;;11.30;99.90;;;;;;4991006;28;20042;-70
2023/01/10 11:23:48;;;;;;;36.47;6.70;;;11.20;1.00;;;;;;4991640;28;20121;-70
2023/01/10 11:26:33;;;;;;;35.90;6.72;;;11.20;99.90;;;;;;5004142;28;20030;-70
2023/01/10 11:29:06;;;;;;;30.42;6.40;;;11.30;99.90;;;;;;4987199;28;20046;-70
2023/01/10 11:31:34;;;;;;;35.17;6.53;;;11.40;99.90;;;;;;4981290;28;20508;-70
2023/01/10 11:34:07;;;;;;;33.53;6.40;;;11.30;1.00;;;;;;4989698;28;20142;-70
2023/01/10 11:36:53;;;;;;;37.85;6.78;;;11.50;1.00;;;;;;4983986;28;20042;-70
2023/01/10 11:39:19;;;;;;;29.83;5.82;;;11.20;1.00;;;;;;4986481;28;20122;-69
2023/01/10 11:41:44;;;;;;;27.10;5.75;;;11.50;1.00;;;;;;4986119;28;20462;-70
2023/01/10 11:44:17;;;;;;;26.20;5.50;;;11.40;1.00;;;;;;4983698;28;20549;-70
2023/01/10 11:46:44;;;;;;;27.80;5.43;;;11.40;1.00;;;;;;4980901;28;20034;-70
2023/01/10 11:49:18;;;;;;;27.08;6.65;;;11.60;1.00;;;;;;4993267;28;20069;-70
2023/01/10 11:51:50;;;;;;;20.45;5.28;;;11.50;1.00;;;;;;4976107;28;20425;-70
2023/01/10 11:54:27;;;;;;;30.65;5.93;;;11.60;1.00;;;;;;4993910;28;20045;-70
2023/01/10 11:56:59;;;;;;;28.63;6.38;;;11.40;1.00;;;;;;4994192;28;20088;-70
2023/01/10 11:59:26;;;;;;;36.25;7.60;;;11.50;1.00;;;;;;4994275;28;20704;-69
2023/01/10 12:02:03;;;;;;;25.83;5.97;;;11.30;1.00;;;;;;4987730;28;20061;-70
2023/01/10 12:04:33;;;;;;;28.90;6.70;;;11.30;1.00;;;;;;4990948;28;20491;-70
2023/01/10 12:07:03;;;;;;;32.42;6.65;;;11.40;1.00;;;;;;4991684;28;20034;-70
2023/01/10 12:09:53;;;;;;;27.75;6.40;;;11.10;1.00;;;;;;4982892;28;20027;-70
2023/01/10 12:12:24;;;;;;;20.17;5.90;;;11.80;1.00;;;;;;4992204;28;20052;-70
2023/01/10 12:14:51;;;;;;;23.80;5.63;;;11.10;1.00;;;;;;5006911;28;20061;-70
2023/01/10 12:17:27;;;;;;;27.05;7.75;;;11.00;1.00;;;;;;4993811;28;20046;-70
2023/01/10 12:19:57;;;;;;;20.80;5.90;;;11.10;1.00;;;;;;5007076;28;20496;-70
2023/01/10 12:22:39;;;;;;;35.75;7.90;;;10.90;1.00;;;;;;4993689;28;20042;-71
2023/01/10 12:25:28;;;;;;;19.95;6.45;;;11.00;1.00;;;;;;4976951;28;20030;-71
2023/01/10 12:27:56;;;;;;;34.05;7.95;;;11.00;1.00;;;;;;4992187;28;20553;-71
2023/01/10 12:30:40;;;;;;;30.77;6.82;;;10.70;1.00;;;;;;4977363;28;20034;-71
2023/01/10 12:33:12;;;;;;;19.65;5.95;;;10.90;1.00;;;;;;4977551;28;20121;-70
2023/01/10 12:35:58;;;;;;;25.85;5.88;;;10.90;1.00;;;;;;4994477;28;20038;-70
2023/01/10 12:44:40;;;;;;;22.23;5.88;;;10.80;1.00;;;;;;5001636;28;20049;-71
2023/01/10 12:47:41;;;;;;;19.02;5.63;;;10.90;99.90;;;;;;4992415;28;20042;-71
2023/01/10 12:50:12;;;;;;;28.35;7.38;;;10.80;99.90;;;;;;4984577;28;20042;-71
2023/01/10 12:52:41;;;;;;;24.63;5.72;;;10.90;99.90;;;;;;4992013;28;20851;-70
2023/01/10 12:55:18;;;;;;;34.33;7.05;;;11.00;99.90;;;;;;4988775;28;20042;-70
2023/01/10 12:57:52;;;;;;;20.90;5.03;;;11.30;1.00;;;;;;4993996;28;20136;-70
2023/01/10 13:00:23;;;;;;;29.35;6.45;;;11.00;99.90;;;;;;4990645;28;20042;-70
2023/01/10 13:02:53;;;;;;;29.38;6.03;;;11.00;99.90;;;;;;5010306;28;20452;-70
2023/01/10 13:05:37;;;;;;;32.25;6.40;;;10.90;99.90;;;;;;4993878;28;20050;-70
2023/01/10 13:08:10;;;;;;;27.77;5.93;;;11.10;99.90;;;;;;4991107;28;20538;-70
2023/01/10 13:10:41;;;;;;;24.42;6.35;;;11.20;99.90;;;;;;5002216;28;20034;-70
2023/01/10 13:13:30;;;;;;;36.17;6.45;;;11.00;99.90;;;;;;4988557;28;20066;-69